sensor_id;sensor_type;location;lat;lon;timestamp;P1;durP1;ratioP1;P2;durP2;ratioP2
34481;SDS011;20720;48.886;9.388;2023-06-26T00:00:14;8.68;;;5.93;;
34481;SDS011;20720;48.886;9.388;2023-06-26T00:02:40;7.65;;;5.55;;
34481;SDS011;20720;48.886;9.388;2023-06-26T00:05:05;6.68;;;4.93;;
34481;SDS011;20720;48.886;9.388;2023-06-26T00:07:31;6.70;;;4.80;;
34481;SDS011;20720;48.886;9.388;2023-06-26T00:09:59;9.63;;;5.68;;
34481;SDS011;20720;48.886;9.388;2023-06-26T00:12:24;10.68;;;5.85;;
34481;SDS011;20720;48.886;9.388;2023-06-26T00:14:50;9.80;;;6.25;;
34481;SDS011;20720;48.886;9.388;2023-06-26T00:17:15;8.85;;;5.80;;
34481;SDS011;20720;48.886;9.388;2023-06-26T00:19:41;9.50;;;6.78;;
34481;SDS011;20720;48.886;9.388;2023-06-26T00:22:06;9.32;;;6.45;;
34481;SDS011;20720;48.886;9.388;2023-06-26T00:24:31;7.80;;;5.65;;
34481;SDS011;20720;48.886;9.388;2023-06-26T00:26:56;8.37;;;5.97;;
34481;SDS011;20720;48.886;9.388;2023-06-26T00:29:22;7.63;;;5.43;;
34481;SDS011;20720;48.886;9.388;2023-06-26T00:31:48;7.20;;;4.78;;
34481;SDS011;20720;48.886;9.388;2023-06-26T00:34:13;7.85;;;5.55;;
34481;SDS011;20720;48.886;9.388;2023-06-26T00:36:39;7.95;;;5.45;;
34481;SDS011;20720;48.886;9.388;2023-06-26T00:39:08;7.15;;;5.10;;
34481;SDS011;20720;48.886;9.388;2023-06-26T00:41:34;9.52;;;5.78;;
34481;SDS011;20720;48.886;9.388;2023-06-26T00:43:59;10.02;;;5.20;;
34481;SDS011;20720;48.886;9.388;2023-06-26T00:46:24;8.02;;;5.53;;
34481;SDS011;20720;48.886;9.388;2023-06-26T00:48:50;9.43;;;6.28;;
34481;SDS011;20720;48.886;9.388;2023-06-26T00:51:15;7.70;;;5.43;;
34481;SDS011;20720;48.886;9.388;2023-06-26T00:53:41;8.07;;;5.65;;
34481;SDS011;20720;48.886;9.388;2023-06-26T00:56:07;8.85;;;6.15;;
34481;SDS011;20720;48.886;9.388;2023-06-26T00:58:33;9.60;;;5.78;;
34481;SDS011;20720;48.886;9.388;2023-06-26T01:00:58;8.85;;;5.85;;
34481;SDS011;20720;48.886;9.388;2023-06-26T01:03:24;8.93;;;6.40;;
34481;SDS011;20720;48.886;9.388;2023-06-26T01:05:51;12.32;;;6.22;;
34481;SDS011;20720;48.886;9.388;2023-06-26T01:08:17;8.95;;;5.88;;
34481;SDS011;20720;48.886;9.388;2023-06-26T01:10:44;8.90;;;6.03;;
34481;SDS011;20720;48.886;9.388;2023-06-26T01:13:11;8.88;;;6.05;;
34481;SDS011;20720;48.886;9.388;2023-06-26T01:15:37;7.63;;;5.60;;
34481;SDS011;20720;48.886;9.388;2023-06-26T01:18:03;8.63;;;5.93;;
34481;SDS011;20720;48.886;9.388;2023-06-26T01:20:38;8.25;;;6.22;;
34481;SDS011;20720;48.886;9.388;2023-06-26T01:25:55;8.43;;;5.75;;
34481;SDS011;20720;48.886;9.388;2023-06-26T01:28:32;10.00;;;5.90;;
34481;SDS011;20720;48.886;9.388;2023-06-26T01:30:59;7.90;;;5.90;;
34481;SDS011;20720;48.886;9.388;2023-06-26T01:33:25;8.27;;;5.95;;
34481;SDS011;20720;48.886;9.388;2023-06-26T01:35:51;8.75;;;6.30;;
34481;SDS011;20720;48.886;9.388;2023-06-26T01:38:20;10.10;;;7.30;;
34481;SDS011;20720;48.886;9.388;2023-06-26T01:40:48;10.65;;;6.45;;
34481;SDS011;20720;48.886;9.388;2023-06-26T01:45:52;9.95;;;6.38;;
34481;SDS011;20720;48.886;9.388;2023-06-26T01:48:23;9.57;;;6.38;;
34481;SDS011;20720;48.886;9.388;2023-06-26T01:50:58;13.32;;;6.68;;
34481;SDS011;20720;48.886;9.388;2023-06-26T01:53:25;9.32;;;6.10;;
34481;SDS011;20720;48.886;9.388;2023-06-26T01:58:29;9.68;;;5.95;;
34481;SDS011;20720;48.886;9.388;2023-06-26T02:00:57;10.45;;;5.57;;
34481;SDS011;20720;48.886;9.388;2023-06-26T02:03:22;8.52;;;6.13;;
34481;SDS011;20720;48.886;9.388;2023-06-26T02:05:49;10.05;;;5.72;;
34481;SDS011;20720;48.886;9.388;2023-06-26T02:08:15;7.88;;;5.85;;
34481;SDS011;20720;48.886;9.388;2023-06-26T02:10:40;10.20;;;6.25;;
34481;SDS011;20720;48.886;9.388;2023-06-26T02:13:05;10.43;;;6.32;;
34481;SDS011;20720;48.886;9.388;2023-06-26T02:15:30;10.60;;;6.82;;
34481;SDS011;20720;48.886;9.388;2023-06-26T02:17:56;8.48;;;6.30;;
34481;SDS011;20720;48.886;9.388;2023-06-26T02:20:21;9.00;;;6.63;;
34481;SDS011;20720;48.886;9.388;2023-06-26T02:22:46;7.90;;;5.75;;
34481;SDS011;20720;48.886;9.388;2023-06-26T02:25:11;8.90;;;6.35;;
34481;SDS011;20720;48.886;9.388;2023-06-26T02:27:37;9.38;;;6.10;;
34481;SDS011;20720;48.886;9.388;2023-06-26T02:30:03;9.70;;;6.78;;
34481;SDS011;20720;48.886;9.388;2023-06-26T02:32:29;8.75;;;6.43;;
34481;SDS011;20720;48.886;9.388;2023-06-26T02:34:54;10.32;;;6.15;;
34481;SDS011;20720;48.886;9.388;2023-06-26T02:37:19;9.73;;;6.63;;
34481;SDS011;20720;48.886;9.388;2023-06-26T02:39:45;7.85;;;5.75;;
34481;SDS011;20720;48.886;9.388;2023-06-26T02:42:10;10.40;;;6.90;;
34481;SDS011;20720;48.886;9.388;2023-06-26T02:44:36;8.20;;;5.93;;
34481;SDS011;20720;48.886;9.388;2023-06-26T02:47:01;8.90;;;5.90;;
34481;SDS011;20720;48.886;9.388;2023-06-26T02:49:26;7.70;;;5.85;;
34481;SDS011;20720;48.886;9.388;2023-06-26T02:51:51;10.00;;;6.40;;
34481;SDS011;20720;48.886;9.388;2023-06-26T02:54:16;8.30;;;5.90;;
34481;SDS011;20720;48.886;9.388;2023-06-26T02:56:42;8.52;;;5.60;;
34481;SDS011;20720;48.886;9.388;2023-06-26T02:59:07;7.60;;;5.88;;
34481;SDS011;20720;48.886;9.388;2023-06-26T03:01:33;9.90;;;6.60;;
34481;SDS011;20720;48.886;9.388;2023-06-26T03:03:58;8.02;;;6.32;;
34481;SDS011;20720;48.886;9.388;2023-06-26T03:06:25;12.45;;;6.20;;
34481;SDS011;20720;48.886;9.388;2023-06-26T03:08:50;8.20;;;5.85;;
34481;SDS011;20720;48.886;9.388;2023-06-26T03:11:16;8.82;;;5.80;;
34481;SDS011;20720;48.886;9.388;2023-06-26T03:13:41;12.23;;;6.25;;
34481;SDS011;20720;48.886;9.388;2023-06-26T03:16:06;10.90;;;6.60;;
34481;SDS011;20720;48.886;9.388;2023-06-26T03:18:31;10.95;;;6.50;;
34481;SDS011;20720;48.886;9.388;2023-06-26T03:20:57;10.13;;;6.57;;
34481;SDS011;20720;48.886;9.388;2023-06-26T03:23:22;8.70;;;6.20;;
34481;SDS011;20720;48.886;9.388;2023-06-26T03:25:48;10.57;;;6.53;;
34481;SDS011;20720;48.886;9.388;2023-06-26T03:28:14;10.82;;;7.18;;
34481;SDS011;20720;48.886;9.388;2023-06-26T03:30:40;8.80;;;6.25;;
34481;SDS011;20720;48.886;9.388;2023-06-26T03:33:05;9.40;;;6.63;;
34481;SDS011;20720;48.886;9.388;2023-06-26T03:35:30;9.45;;;6.47;;
34481;SDS011;20720;48.886;9.388;2023-06-26T03:37:56;12.23;;;6.45;;
34481;SDS011;20720;48.886;9.388;2023-06-26T03:40:22;8.95;;;6.50;;
34481;SDS011;20720;48.886;9.388;2023-06-26T03:42:47;8.45;;;6.35;;
34481;SDS011;20720;48.886;9.388;2023-06-26T03:45:12;8.93;;;6.57;;
34481;SDS011;20720;48.886;9.388;2023-06-26T03:47:38;8.90;;;6.28;;
34481;SDS011;20720;48.886;9.388;2023-06-26T03:50:03;9.18;;;6.35;;
34481;SDS011;20720;48.886;9.388;2023-06-26T03:52:29;9.32;;;6.32;;
34481;SDS011;20720;48.886;9.388;2023-06-26T03:54:56;8.63;;;6.22;;
34481;SDS011;20720;48.886;9.388;2023-06-26T03:57:22;9.30;;;6.28;;
34481;SDS011;20720;48.886;9.388;2023-06-26T03:59:47;9.27;;;6.93;;
34481;SDS011;20720;48.886;9.388;2023-06-26T04:02:12;9.68;;;6.78;;
34481;SDS011;20720;48.886;9.388;2023-06-26T04:04:37;10.60;;;7.32;;
34481;SDS011;20720;48.886;9.388;2023-06-26T04:07:03;10.05;;;6.60;;
34481;SDS011;20720;48.886;9.388;2023-06-26T04:09:28;12.00;;;6.70;;
34481;SDS011;20720;48.886;9.388;2023-06-26T04:11:53;11.73;;;6.75;;
34481;SDS011;20720;48.886;9.388;2023-06-26T04:14:18;11.50;;;6.75;;
34481;SDS011;20720;48.886;9.388;2023-06-26T04:16:44;10.38;;;6.68;;
34481;SDS011;20720;48.886;9.388;2023-06-26T04:19:10;9.80;;;6.88;;
34481;SDS011;20720;48.886;9.388;2023-06-26T04:21:35;9.75;;;7.03;;
34481;SDS011;20720;48.886;9.388;2023-06-26T04:24:01;10.65;;;7.22;;
34481;SDS011;20720;48.886;9.388;2023-06-26T04:26:26;9.00;;;6.53;;
34481;SDS011;20720;48.886;9.388;2023-06-26T04:28:52;15.25;;;7.20;;
34481;SDS011;20720;48.886;9.388;2023-06-26T04:31:18;9.88;;;6.57;;
34481;SDS011;20720;48.886;9.388;2023-06-26T04:33:43;9.82;;;6.25;;
34481;SDS011;20720;48.886;9.388;2023-06-26T04:36:08;10.35;;;7.47;;
34481;SDS011;20720;48.886;9.388;2023-06-26T04:38:34;10.05;;;7.20;;
34481;SDS011;20720;48.886;9.388;2023-06-26T04:41:00;11.23;;;7.25;;
34481;SDS011;20720;48.886;9.388;2023-06-26T04:43:26;12.43;;;6.97;;
34481;SDS011;20720;48.886;9.388;2023-06-26T04:45:51;11.38;;;6.60;;
34481;SDS011;20720;48.886;9.388;2023-06-26T04:48:16;11.10;;;7.20;;
34481;SDS011;20720;48.886;9.388;2023-06-26T04:50:41;10.63;;;7.00;;
34481;SDS011;20720;48.886;9.388;2023-06-26T04:53:07;12.05;;;7.45;;
34481;SDS011;20720;48.886;9.388;2023-06-26T04:55:32;10.02;;;7.05;;
34481;SDS011;20720;48.886;9.388;2023-06-26T04:57:57;9.60;;;7.03;;
34481;SDS011;20720;48.886;9.388;2023-06-26T05:00:23;12.68;;;6.97;;
34481;SDS011;20720;48.886;9.388;2023-06-26T05:02:49;11.98;;;6.82;;
34481;SDS011;20720;48.886;9.388;2023-06-26T05:05:24;11.38;;;7.28;;
34481;SDS011;20720;48.886;9.388;2023-06-26T05:07:49;9.57;;;6.50;;
34481;SDS011;20720;48.886;9.388;2023-06-26T05:10:14;9.45;;;6.57;;
34481;SDS011;20720;48.886;9.388;2023-06-26T05:12:40;8.82;;;6.72;;
34481;SDS011;20720;48.886;9.388;2023-06-26T05:15:05;10.65;;;6.75;;
34481;SDS011;20720;48.886;9.388;2023-06-26T05:17:31;9.15;;;6.95;;
34481;SDS011;20720;48.886;9.388;2023-06-26T05:19:56;10.05;;;7.15;;
34481;SDS011;20720;48.886;9.388;2023-06-26T05:22:21;9.68;;;6.72;;
34481;SDS011;20720;48.886;9.388;2023-06-26T05:24:47;12.88;;;7.03;;
34481;SDS011;20720;48.886;9.388;2023-06-26T05:27:13;8.73;;;6.72;;
34481;SDS011;20720;48.886;9.388;2023-06-26T05:29:46;10.73;;;6.72;;
34481;SDS011;20720;48.886;9.388;2023-06-26T05:32:11;7.60;;;6.22;;
34481;SDS011;20720;48.886;9.388;2023-06-26T05:34:42;9.25;;;6.78;;
34481;SDS011;20720;48.886;9.388;2023-06-26T05:37:08;11.07;;;6.68;;
34481;SDS011;20720;48.886;9.388;2023-06-26T05:39:34;7.53;;;6.32;;
34481;SDS011;20720;48.886;9.388;2023-06-26T05:41:59;9.18;;;6.63;;
34481;SDS011;20720;48.886;9.388;2023-06-26T05:44:25;9.50;;;6.35;;
34481;SDS011;20720;48.886;9.388;2023-06-26T05:46:50;10.90;;;7.00;;
34481;SDS011;20720;48.886;9.388;2023-06-26T05:49:15;8.68;;;6.40;;
34481;SDS011;20720;48.886;9.388;2023-06-26T05:51:41;7.45;;;6.03;;
34481;SDS011;20720;48.886;9.388;2023-06-26T05:54:06;10.20;;;6.60;;
34481;SDS011;20720;48.886;9.388;2023-06-26T05:56:32;7.70;;;5.97;;
34481;SDS011;20720;48.886;9.388;2023-06-26T05:58:58;8.43;;;6.05;;
34481;SDS011;20720;48.886;9.388;2023-06-26T06:01:23;8.10;;;5.75;;
34481;SDS011;20720;48.886;9.388;2023-06-26T06:03:49;7.55;;;5.93;;
34481;SDS011;20720;48.886;9.388;2023-06-26T06:06:14;7.00;;;5.63;;
34481;SDS011;20720;48.886;9.388;2023-06-26T06:08:40;8.43;;;6.13;;
34481;SDS011;20720;48.886;9.388;2023-06-26T06:11:06;9.80;;;5.95;;
34481;SDS011;20720;48.886;9.388;2023-06-26T06:13:31;7.03;;;5.73;;
34481;SDS011;20720;48.886;9.388;2023-06-26T06:15:56;8.88;;;5.68;;
34481;SDS011;20720;48.886;9.388;2023-06-26T06:18:22;7.13;;;5.43;;
34481;SDS011;20720;48.886;9.388;2023-06-26T06:20:47;7.53;;;5.53;;
34481;SDS011;20720;48.886;9.388;2023-06-26T06:23:12;7.28;;;5.60;;
34481;SDS011;20720;48.886;9.388;2023-06-26T06:25:38;7.68;;;5.30;;
34481;SDS011;20720;48.886;9.388;2023-06-26T06:28:04;6.38;;;4.80;;
34481;SDS011;20720;48.886;9.388;2023-06-26T06:30:29;9.38;;;5.63;;
34481;SDS011;20720;48.886;9.388;2023-06-26T06:32:54;8.23;;;5.00;;
34481;SDS011;20720;48.886;9.388;2023-06-26T06:35:20;5.72;;;5.00;;
34481;SDS011;20720;48.886;9.388;2023-06-26T06:37:45;7.40;;;4.60;;
34481;SDS011;20720;48.886;9.388;2023-06-26T06:40:10;6.28;;;5.03;;
34481;SDS011;20720;48.886;9.388;2023-06-26T06:42:36;5.78;;;4.80;;
34481;SDS011;20720;48.886;9.388;2023-06-26T06:45:02;6.65;;;5.45;;
34481;SDS011;20720;48.886;9.388;2023-06-26T06:47:28;6.32;;;4.60;;
34481;SDS011;20720;48.886;9.388;2023-06-26T06:49:54;8.60;;;5.55;;
34481;SDS011;20720;48.886;9.388;2023-06-26T06:52:19;6.95;;;5.03;;
34481;SDS011;20720;48.886;9.388;2023-06-26T06:54:54;5.97;;;4.67;;
34481;SDS011;20720;48.886;9.388;2023-06-26T06:57:23;5.80;;;4.88;;
34481;SDS011;20720;48.886;9.388;2023-06-26T06:59:49;7.28;;;4.80;;
34481;SDS011;20720;48.886;9.388;2023-06-26T07:02:18;7.18;;;4.80;;
34481;SDS011;20720;48.886;9.388;2023-06-26T07:04:43;7.93;;;5.07;;
34481;SDS011;20720;48.886;9.388;2023-06-26T07:07:08;6.70;;;4.97;;
34481;SDS011;20720;48.886;9.388;2023-06-26T07:09:34;6.55;;;4.72;;
34481;SDS011;20720;48.886;9.388;2023-06-26T07:12:00;6.90;;;4.57;;
34481;SDS011;20720;48.886;9.388;2023-06-26T07:14:25;6.07;;;4.82;;
34481;SDS011;20720;48.886;9.388;2023-06-26T07:16:50;8.77;;;4.47;;
34481;SDS011;20720;48.886;9.388;2023-06-26T07:19:16;9.40;;;4.43;;
34481;SDS011;20720;48.886;9.388;2023-06-26T07:21:41;6.20;;;4.33;;
34481;SDS011;20720;48.886;9.388;2023-06-26T07:24:08;6.32;;;5.07;;
34481;SDS011;20720;48.886;9.388;2023-06-26T07:26:33;6.55;;;4.28;;
34481;SDS011;20720;48.886;9.388;2023-06-26T07:28:58;5.07;;;3.63;;
34481;SDS011;20720;48.886;9.388;2023-06-26T07:31:23;5.45;;;4.60;;
34481;SDS011;20720;48.886;9.388;2023-06-26T07:33:48;5.30;;;4.23;;
34481;SDS011;20720;48.886;9.388;2023-06-26T07:36:14;5.07;;;4.43;;
34481;SDS011;20720;48.886;9.388;2023-06-26T07:38:39;5.50;;;4.30;;
34481;SDS011;20720;48.886;9.388;2023-06-26T07:41:04;5.90;;;4.20;;
34481;SDS011;20720;48.886;9.388;2023-06-26T07:43:29;6.77;;;4.57;;
34481;SDS011;20720;48.886;9.388;2023-06-26T07:45:56;5.00;;;4.15;;
34481;SDS011;20720;48.886;9.388;2023-06-26T07:48:24;6.43;;;4.55;;
34481;SDS011;20720;48.886;9.388;2023-06-26T07:50:50;8.32;;;4.35;;
34481;SDS011;20720;48.886;9.388;2023-06-26T07:53:15;6.97;;;4.15;;
34481;SDS011;20720;48.886;9.388;2023-06-26T07:55:41;4.65;;;4.03;;
34481;SDS011;20720;48.886;9.388;2023-06-26T07:58:07;5.28;;;4.20;;
34481;SDS011;20720;48.886;9.388;2023-06-26T08:00:32;5.43;;;4.20;;
34481;SDS011;20720;48.886;9.388;2023-06-26T08:02:57;5.93;;;3.83;;
34481;SDS011;20720;48.886;9.388;2023-06-26T08:05:22;8.10;;;4.03;;
34481;SDS011;20720;48.886;9.388;2023-06-26T08:07:48;5.63;;;3.97;;
34481;SDS011;20720;48.886;9.388;2023-06-26T08:10:13;5.57;;;3.97;;
34481;SDS011;20720;48.886;9.388;2023-06-26T08:12:38;5.32;;;3.83;;
34481;SDS011;20720;48.886;9.388;2023-06-26T08:15:05;5.82;;;3.90;;
34481;SDS011;20720;48.886;9.388;2023-06-26T08:17:31;4.85;;;3.63;;
34481;SDS011;20720;48.886;9.388;2023-06-26T08:19:56;5.65;;;3.67;;
34481;SDS011;20720;48.886;9.388;2023-06-26T08:22:22;6.45;;;3.88;;
34481;SDS011;20720;48.886;9.388;2023-06-26T08:24:47;4.70;;;3.90;;
34481;SDS011;20720;48.886;9.388;2023-06-26T08:27:12;5.10;;;4.13;;
34481;SDS011;20720;48.886;9.388;2023-06-26T08:29:37;5.28;;;3.60;;
34481;SDS011;20720;48.886;9.388;2023-06-26T08:32:03;4.90;;;4.00;;
34481;SDS011;20720;48.886;9.388;2023-06-26T08:34:28;4.68;;;3.78;;
34481;SDS011;20720;48.886;9.388;2023-06-26T08:36:53;4.97;;;3.80;;
34481;SDS011;20720;48.886;9.388;2023-06-26T08:39:19;4.40;;;3.73;;
34481;SDS011;20720;48.886;9.388;2023-06-26T08:41:44;6.30;;;3.97;;
34481;SDS011;20720;48.886;9.388;2023-06-26T08:44:09;5.03;;;4.07;;
34481;SDS011;20720;48.886;9.388;2023-06-26T08:46:35;4.57;;;3.60;;
34481;SDS011;20720;48.886;9.388;2023-06-26T08:49:01;4.25;;;3.35;;
34481;SDS011;20720;48.886;9.388;2023-06-26T08:51:36;6.63;;;4.00;;
34481;SDS011;20720;48.886;9.388;2023-06-26T08:54:05;5.45;;;3.95;;
34481;SDS011;20720;48.886;9.388;2023-06-26T08:56:37;5.20;;;3.92;;
34481;SDS011;20720;48.886;9.388;2023-06-26T08:59:05;4.57;;;3.40;;
34481;SDS011;20720;48.886;9.388;2023-06-26T09:01:32;4.63;;;4.10;;
34481;SDS011;20720;48.886;9.388;2023-06-26T09:03:57;5.38;;;3.72;;
34481;SDS011;20720;48.886;9.388;2023-06-26T09:06:22;4.17;;;3.33;;
34481;SDS011;20720;48.886;9.388;2023-06-26T09:08:47;7.43;;;3.75;;
34481;SDS011;20720;48.886;9.388;2023-06-26T09:11:13;4.13;;;3.60;;
34481;SDS011;20720;48.886;9.388;2023-06-26T09:13:39;6.00;;;3.55;;
34481;SDS011;20720;48.886;9.388;2023-06-26T09:16:08;4.45;;;3.60;;
34481;SDS011;20720;48.886;9.388;2023-06-26T09:18:33;4.95;;;3.35;;
34481;SDS011;20720;48.886;9.388;2023-06-26T09:20:59;3.92;;;3.50;;
34481;SDS011;20720;48.886;9.388;2023-06-26T09:23:24;4.70;;;3.45;;
34481;SDS011;20720;48.886;9.388;2023-06-26T09:25:50;4.93;;;3.40;;
34481;SDS011;20720;48.886;9.388;2023-06-26T09:28:16;4.18;;;3.60;;
34481;SDS011;20720;48.886;9.388;2023-06-26T09:30:42;3.67;;;3.05;;
34481;SDS011;20720;48.886;9.388;2023-06-26T09:33:14;4.05;;;3.38;;
34481;SDS011;20720;48.886;9.388;2023-06-26T09:35:41;6.07;;;3.25;;
34481;SDS011;20720;48.886;9.388;2023-06-26T09:38:07;5.28;;;3.50;;
34481;SDS011;20720;48.886;9.388;2023-06-26T09:40:32;4.18;;;3.30;;
34481;SDS011;20720;48.886;9.388;2023-06-26T09:43:06;10.40;;;3.45;;
34481;SDS011;20720;48.886;9.388;2023-06-26T09:45:32;3.78;;;3.00;;
34481;SDS011;20720;48.886;9.388;2023-06-26T09:47:59;7.20;;;3.45;;
34481;SDS011;20720;48.886;9.388;2023-06-26T09:50:25;5.03;;;3.53;;
34481;SDS011;20720;48.886;9.388;2023-06-26T09:52:52;6.80;;;3.70;;
34481;SDS011;20720;48.886;9.388;2023-06-26T09:55:17;4.13;;;3.13;;
34481;SDS011;20720;48.886;9.388;2023-06-26T09:57:45;4.18;;;3.50;;
34481;SDS011;20720;48.886;9.388;2023-06-26T10:00:12;5.72;;;3.17;;
34481;SDS011;20720;48.886;9.388;2023-06-26T10:02:38;5.90;;;2.80;;
34481;SDS011;20720;48.886;9.388;2023-06-26T10:05:03;7.90;;;3.22;;
34481;SDS011;20720;48.886;9.388;2023-06-26T10:07:29;4.20;;;2.92;;
34481;SDS011;20720;48.886;9.388;2023-06-26T10:09:55;5.20;;;2.88;;
34481;SDS011;20720;48.886;9.388;2023-06-26T10:12:25;6.40;;;2.92;;
34481;SDS011;20720;48.886;9.388;2023-06-26T10:14:53;5.72;;;3.40;;
34481;SDS011;20720;48.886;9.388;2023-06-26T10:17:19;7.40;;;3.30;;
34481;SDS011;20720;48.886;9.388;2023-06-26T10:19:46;3.75;;;2.78;;
34481;SDS011;20720;48.886;9.388;2023-06-26T10:22:14;5.60;;;3.03;;
34481;SDS011;20720;48.886;9.388;2023-06-26T10:24:42;3.75;;;3.13;;
34481;SDS011;20720;48.886;9.388;2023-06-26T10:27:19;5.65;;;2.90;;
34481;SDS011;20720;48.886;9.388;2023-06-26T10:29:47;6.28;;;3.20;;
34481;SDS011;20720;48.886;9.388;2023-06-26T10:32:16;4.53;;;3.50;;
34481;SDS011;20720;48.886;9.388;2023-06-26T10:34:42;5.00;;;2.90;;
34481;SDS011;20720;48.886;9.388;2023-06-26T10:37:08;5.22;;;3.30;;
34481;SDS011;20720;48.886;9.388;2023-06-26T10:39:45;4.30;;;2.80;;
34481;SDS011;20720;48.886;9.388;2023-06-26T10:42:14;7.57;;;3.47;;
34481;SDS011;20720;48.886;9.388;2023-06-26T10:44:43;4.88;;;3.53;;
34481;SDS011;20720;48.886;9.388;2023-06-26T10:47:09;4.57;;;3.92;;
34481;SDS011;20720;48.886;9.388;2023-06-26T10:49:36;5.22;;;3.35;;
34481;SDS011;20720;48.886;9.388;2023-06-26T10:52:02;6.53;;;3.30;;
34481;SDS011;20720;48.886;9.388;2023-06-26T10:54:31;3.95;;;3.10;;
34481;SDS011;20720;48.886;9.388;2023-06-26T10:56:58;6.40;;;3.10;;
34481;SDS011;20720;48.886;9.388;2023-06-26T10:59:24;4.97;;;3.78;;
34481;SDS011;20720;48.886;9.388;2023-06-26T11:02:00;4.00;;;3.33;;
34481;SDS011;20720;48.886;9.388;2023-06-26T11:04:36;3.85;;;3.33;;
34481;SDS011;20720;48.886;9.388;2023-06-26T11:15:01;6.68;;;4.15;;
34481;SDS011;20720;48.886;9.388;2023-06-26T11:17:26;9.00;;;4.00;;
34481;SDS011;20720;48.886;9.388;2023-06-26T11:19:52;10.35;;;4.22;;
34481;SDS011;20720;48.886;9.388;2023-06-26T11:22:17;6.20;;;3.90;;
34481;SDS011;20720;48.886;9.388;2023-06-26T11:24:44;3.80;;;3.40;;
34481;SDS011;20720;48.886;9.388;2023-06-26T11:27:09;8.35;;;3.70;;
34481;SDS011;20720;48.886;9.388;2023-06-26T11:29:34;6.43;;;4.10;;
34481;SDS011;20720;48.886;9.388;2023-06-26T11:32:00;5.63;;;3.85;;
34481;SDS011;20720;48.886;9.388;2023-06-26T11:34:29;4.63;;;4.03;;
34481;SDS011;20720;48.886;9.388;2023-06-26T11:36:56;7.45;;;3.75;;
34481;SDS011;20720;48.886;9.388;2023-06-26T11:39:22;8.18;;;4.10;;
34481;SDS011;20720;48.886;9.388;2023-06-26T11:41:47;3.93;;;3.50;;
34481;SDS011;20720;48.886;9.388;2023-06-26T11:44:12;4.88;;;4.10;;
34481;SDS011;20720;48.886;9.388;2023-06-26T11:46:40;5.97;;;3.78;;
34481;SDS011;20720;48.886;9.388;2023-06-26T11:49:05;4.33;;;3.60;;
34481;SDS011;20720;48.886;9.388;2023-06-26T11:51:32;4.68;;;3.63;;
34481;SDS011;20720;48.886;9.388;2023-06-26T11:54:00;7.43;;;4.50;;
34481;SDS011;20720;48.886;9.388;2023-06-26T11:56:26;7.22;;;3.70;;
34481;SDS011;20720;48.886;9.388;2023-06-26T11:59:07;4.22;;;3.45;;
34481;SDS011;20720;48.886;9.388;2023-06-26T12:01:34;8.10;;;3.78;;
34481;SDS011;20720;48.886;9.388;2023-06-26T12:04:05;5.25;;;3.70;;
34481;SDS011;20720;48.886;9.388;2023-06-26T12:06:43;6.05;;;3.70;;
34481;SDS011;20720;48.886;9.388;2023-06-26T12:09:11;6.47;;;3.80;;
34481;SDS011;20720;48.886;9.388;2023-06-26T12:11:38;7.18;;;3.90;;
34481;SDS011;20720;48.886;9.388;2023-06-26T12:14:06;6.72;;;3.83;;
34481;SDS011;20720;48.886;9.388;2023-06-26T12:16:33;6.70;;;3.58;;
34481;SDS011;20720;48.886;9.388;2023-06-26T12:19:03;5.05;;;4.10;;
34481;SDS011;20720;48.886;9.388;2023-06-26T12:24:07;5.10;;;3.70;;
34481;SDS011;20720;48.886;9.388;2023-06-26T12:26:33;8.60;;;4.10;;
34481;SDS011;20720;48.886;9.388;2023-06-26T12:29:04;8.45;;;4.03;;
34481;SDS011;20720;48.886;9.388;2023-06-26T12:31:31;6.53;;;3.60;;
34481;SDS011;20720;48.886;9.388;2023-06-26T12:33:57;7.25;;;4.13;;
34481;SDS011;20720;48.886;9.388;2023-06-26T12:36:22;9.73;;;4.28;;
34481;SDS011;20720;48.886;9.388;2023-06-26T12:38:48;6.55;;;3.95;;
34481;SDS011;20720;48.886;9.388;2023-06-26T12:41:14;5.13;;;3.95;;
34481;SDS011;20720;48.886;9.388;2023-06-26T12:43:40;4.15;;;3.45;;
34481;SDS011;20720;48.886;9.388;2023-06-26T12:46:05;9.05;;;4.10;;
34481;SDS011;20720;48.886;9.388;2023-06-26T12:48:41;5.35;;;4.15;;
34481;SDS011;20720;48.886;9.388;2023-06-26T12:51:14;18.67;;;4.75;;
34481;SDS011;20720;48.886;9.388;2023-06-26T12:53:40;39.63;;;8.38;;
34481;SDS011;20720;48.886;9.388;2023-06-26T12:56:06;10.52;;;4.22;;
34481;SDS011;20720;48.886;9.388;2023-06-26T12:58:35;5.18;;;3.78;;
34481;SDS011;20720;48.886;9.388;2023-06-26T13:01:05;6.90;;;3.90;;
34481;SDS011;20720;48.886;9.388;2023-06-26T13:03:40;6.75;;;4.20;;
34481;SDS011;20720;48.886;9.388;2023-06-26T13:06:05;5.90;;;4.25;;
34481;SDS011;20720;48.886;9.388;2023-06-26T13:08:31;4.43;;;3.58;;
34481;SDS011;20720;48.886;9.388;2023-06-26T13:10:58;5.05;;;3.78;;
34481;SDS011;20720;48.886;9.388;2023-06-26T13:13:23;7.28;;;3.70;;
34481;SDS011;20720;48.886;9.388;2023-06-26T13:15:48;6.65;;;3.85;;
34481;SDS011;20720;48.886;9.388;2023-06-26T13:18:14;5.18;;;3.17;;
34481;SDS011;20720;48.886;9.388;2023-06-26T13:20:39;8.77;;;3.60;;
34481;SDS011;20720;48.886;9.388;2023-06-26T13:23:04;6.70;;;3.83;;
34481;SDS011;20720;48.886;9.388;2023-06-26T13:25:30;6.70;;;3.70;;
34481;SDS011;20720;48.886;9.388;2023-06-26T13:27:56;6.40;;;3.90;;
34481;SDS011;20720;48.886;9.388;2023-06-26T13:30:21;8.07;;;3.87;;
34481;SDS011;20720;48.886;9.388;2023-06-26T13:32:46;7.03;;;3.67;;
34481;SDS011;20720;48.886;9.388;2023-06-26T13:35:12;8.27;;;3.50;;
34481;SDS011;20720;48.886;9.388;2023-06-26T13:37:38;7.95;;;3.63;;
34481;SDS011;20720;48.886;9.388;2023-06-26T13:40:04;4.57;;;3.20;;
34481;SDS011;20720;48.886;9.388;2023-06-26T13:42:31;5.60;;;3.70;;
34481;SDS011;20720;48.886;9.388;2023-06-26T13:44:57;4.47;;;3.40;;
34481;SDS011;20720;48.886;9.388;2023-06-26T13:47:23;4.28;;;3.45;;
34481;SDS011;20720;48.886;9.388;2023-06-26T13:49:48;6.13;;;3.40;;
34481;SDS011;20720;48.886;9.388;2023-06-26T13:52:14;3.63;;;2.87;;
34481;SDS011;20720;48.886;9.388;2023-06-26T13:54:39;5.97;;;3.00;;
34481;SDS011;20720;48.886;9.388;2023-06-26T13:57:08;7.07;;;3.20;;
34481;SDS011;20720;48.886;9.388;2023-06-26T13:59:33;5.65;;;3.50;;
34481;SDS011;20720;48.886;9.388;2023-06-26T14:01:59;7.03;;;3.75;;
34481;SDS011;20720;48.886;9.388;2023-06-26T14:04:25;6.78;;;3.20;;
34481;SDS011;20720;48.886;9.388;2023-06-26T14:06:51;3.78;;;2.80;;
34481;SDS011;20720;48.886;9.388;2023-06-26T14:09:16;3.83;;;2.95;;
34481;SDS011;20720;48.886;9.388;2023-06-26T14:11:41;4.82;;;3.00;;
34481;SDS011;20720;48.886;9.388;2023-06-26T14:14:07;5.20;;;2.75;;
34481;SDS011;20720;48.886;9.388;2023-06-26T14:16:32;5.77;;;2.50;;
34481;SDS011;20720;48.886;9.388;2023-06-26T14:18:57;4.32;;;2.78;;
34481;SDS011;20720;48.886;9.388;2023-06-26T14:21:23;5.55;;;2.63;;
34481;SDS011;20720;48.886;9.388;2023-06-26T14:23:48;2.80;;;2.17;;
34481;SDS011;20720;48.886;9.388;2023-06-26T14:26:14;2.85;;;2.15;;
34481;SDS011;20720;48.886;9.388;2023-06-26T14:28:39;4.95;;;2.10;;
34481;SDS011;20720;48.886;9.388;2023-06-26T14:31:05;3.30;;;2.25;;
34481;SDS011;20720;48.886;9.388;2023-06-26T14:33:30;5.68;;;2.42;;
34481;SDS011;20720;48.886;9.388;2023-06-26T14:35:55;4.55;;;2.47;;
34481;SDS011;20720;48.886;9.388;2023-06-26T14:38:21;4.00;;;1.92;;
34481;SDS011;20720;48.886;9.388;2023-06-26T14:40:46;4.72;;;1.92;;
34481;SDS011;20720;48.886;9.388;2023-06-26T14:43:11;3.08;;;2.10;;
34481;SDS011;20720;48.886;9.388;2023-06-26T14:45:37;5.67;;;2.30;;
34481;SDS011;20720;48.886;9.388;2023-06-26T14:48:02;4.47;;;1.90;;
34481;SDS011;20720;48.886;9.388;2023-06-26T14:50:27;3.83;;;1.88;;
34481;SDS011;20720;48.886;9.388;2023-06-26T14:52:52;2.80;;;1.93;;
34481;SDS011;20720;48.886;9.388;2023-06-26T14:55:18;3.33;;;2.00;;
34481;SDS011;20720;48.886;9.388;2023-06-26T14:57:43;3.42;;;2.05;;